N312NW KMDW-KCMH
Flight info
| Callsign | N312NW |
|---|---|
| Flight time | 1h 3m |
| Altitude | 23000 |
| Route | LEWKE GIJ SEWTO FWA |
| Aircraft | PC12/L-SDFGRWY/S |
Departure
| Time | 2026-05-09 00:35 |
|---|---|
| Airport | Chicago Midway International Airport (KMDW) |
Arrival
| Time | 2026-05-09 01:38 |
|---|---|
| Airport | John Glenn Columbus International Airport (KCMH) |
| Time | Latitude | Longitude | Altitude | Speed | Heading |
|---|---|---|---|---|---|
| 2026-05-09 00:17 | 41.78078 | -87.75213 | 625 ft | 0 kts | 0° |
| 2026-05-09 00:29 | 41.78085 | -87.75212 | 631 ft | 4 kts | 8° |
| 2026-05-09 00:29 | 41.78098 | -87.75147 | 625 ft | 9 kts | 69° |
| 2026-05-09 00:29 | 41.78147 | -87.75096 | 626 ft | 9 kts | 37° |
| 2026-05-09 00:29 | 41.78194 | -87.75126 | 626 ft | 9 kts | 314° |
| 2026-05-09 00:30 | 41.78199 | -87.75218 | 625 ft | 11 kts | 268° |
| 2026-05-09 00:30 | 41.78197 | -87.75333 | 625 ft | 13 kts | 268° |
| 2026-05-09 00:30 | 41.78152 | -87.75433 | 630 ft | 14 kts | 224° |
| 2026-05-09 00:30 | 41.78081 | -87.75520 | 625 ft | 14 kts | 223° |
| 2026-05-09 00:31 | 41.78008 | -87.75611 | 625 ft | 15 kts | 224° |
| 2026-05-09 00:31 | 41.77971 | -87.75659 | 626 ft | 0 kts | 224° |
| 2026-05-09 00:31 | 41.77971 | -87.75660 | 626 ft | 1 kts | 224° |
| 2026-05-09 00:32 | 41.77987 | -87.75691 | 625 ft | 7 kts | 350° |
| 2026-05-09 00:32 | 41.77989 | -87.75691 | 625 ft | 0 kts | 350° |
| 2026-05-09 00:33 | 41.77993 | -87.75692 | 625 ft | 2 kts | 350° |
| 2026-05-09 00:33 | 41.78035 | -87.75738 | 625 ft | 15 kts | 324° |
| 2026-05-09 00:33 | 41.78089 | -87.75720 | 630 ft | 0 kts | 42° |
| 2026-05-09 00:34 | 41.78202 | -87.75568 | 631 ft | 50 kts | 44° |
| 2026-05-09 00:34 | 41.78571 | -87.75110 | 624 ft | 90 kts | 41° |
| 2026-05-09 00:34 | 41.79077 | -87.74549 | 791 ft | 96 kts | 46° |
| 2026-05-09 00:34 | 41.79566 | -87.73950 | 1047 ft | 97 kts | 55° |
| 2026-05-09 00:35 | 41.79690 | -87.73060 | 1138 ft | 114 kts | 96° |
| 2026-05-09 00:35 | 41.79610 | -87.71851 | 1115 ft | 147 kts | 96° |
| 2026-05-09 00:35 | 41.79518 | -87.70410 | 1352 ft | 162 kts | 95° |
| 2026-05-09 00:35 | 41.79444 | -87.68823 | 1640 ft | 175 kts | 95° |
| 2026-05-09 00:36 | 41.79366 | -87.67164 | 1920 ft | 187 kts | 94° |
| 2026-05-09 00:36 | 41.79277 | -87.65386 | 2199 ft | 195 kts | 95° |
| 2026-05-09 00:36 | 41.79184 | -87.63545 | 2478 ft | 201 kts | 95° |
| 2026-05-09 00:36 | 41.79090 | -87.61655 | 2760 ft | 206 kts | 94° |
| 2026-05-09 00:37 | 41.78994 | -87.59734 | 3089 ft | 206 kts | 94° |
| 2026-05-09 00:37 | 41.78899 | -87.57830 | 3466 ft | 204 kts | 95° |
| 2026-05-09 00:37 | 41.78804 | -87.55937 | 3838 ft | 203 kts | 94° |
| 2026-05-09 00:37 | 41.78709 | -87.54047 | 4220 ft | 203 kts | 94° |
| 2026-05-09 00:38 | 41.78614 | -87.52166 | 4601 ft | 202 kts | 95° |
| 2026-05-09 00:38 | 41.78518 | -87.50286 | 4978 ft | 202 kts | 95° |
| 2026-05-09 00:38 | 41.78422 | -87.48409 | 5356 ft | 202 kts | 95° |
| 2026-05-09 00:38 | 41.78326 | -87.46529 | 5737 ft | 202 kts | 95° |
| 2026-05-09 00:39 | 41.78230 | -87.44651 | 6126 ft | 202 kts | 94° |
| 2026-05-09 00:39 | 41.78133 | -87.42772 | 6492 ft | 202 kts | 94° |
| 2026-05-09 00:39 | 41.78074 | -87.41638 | 6716 ft | 202 kts | 94° |
| 2026-05-09 00:39 | 41.77977 | -87.39759 | 7084 ft | 203 kts | 94° |
| 2026-05-09 00:40 | 41.77879 | -87.37871 | 7456 ft | 203 kts | 94° |
| 2026-05-09 00:40 | 41.77780 | -87.35976 | 7829 ft | 204 kts | 94° |
| 2026-05-09 00:40 | 41.77681 | -87.34078 | 8217 ft | 205 kts | 93° |
| 2026-05-09 00:41 | 41.77361 | -87.30291 | 9000 ft | 205 kts | 110° |
| 2026-05-09 00:41 | 41.76732 | -87.28585 | 9399 ft | 205 kts | 120° |
| 2026-05-09 00:41 | 41.76059 | -87.26893 | 9791 ft | 206 kts | 117° |
| 2026-05-09 00:41 | 41.75440 | -87.25154 | 10152 ft | 207 kts | 115° |
| 2026-05-09 00:42 | 41.74839 | -87.23400 | 10516 ft | 208 kts | 115° |
| 2026-05-09 00:42 | 41.74226 | -87.21634 | 10887 ft | 209 kts | 116° |
| 2026-05-09 00:42 | 41.73611 | -87.19873 | 11260 ft | 210 kts | 116° |
| 2026-05-09 00:42 | 41.72991 | -87.18102 | 11633 ft | 210 kts | 116° |
| 2026-05-09 00:43 | 41.72370 | -87.16326 | 12023 ft | 211 kts | 116° |
| 2026-05-09 00:43 | 41.71748 | -87.14549 | 12407 ft | 211 kts | 117° |
| 2026-05-09 00:43 | 41.71124 | -87.12766 | 12814 ft | 212 kts | 117° |
| 2026-05-09 00:43 | 41.70499 | -87.10980 | 13213 ft | 212 kts | 117° |
| 2026-05-09 00:44 | 41.69871 | -87.09191 | 13612 ft | 212 kts | 117° |
| 2026-05-09 00:44 | 41.69245 | -87.07405 | 13970 ft | 213 kts | 117° |
| 2026-05-09 00:44 | 41.68614 | -87.05608 | 14332 ft | 213 kts | 117° |
| 2026-05-09 00:44 | 41.67984 | -87.03813 | 14694 ft | 214 kts | 118° |
| 2026-05-09 00:45 | 41.67356 | -87.02026 | 15053 ft | 215 kts | 118° |
| 2026-05-09 00:45 | 41.66720 | -87.00216 | 15431 ft | 215 kts | 118° |
| 2026-05-09 00:45 | 41.66082 | -86.98404 | 15807 ft | 216 kts | 118° |
| 2026-05-09 00:45 | 41.65442 | -86.96586 | 16187 ft | 216 kts | 118° |
| 2026-05-09 00:46 | 41.64801 | -86.94766 | 16571 ft | 217 kts | 118° |
| 2026-05-09 00:46 | 41.64157 | -86.92938 | 16962 ft | 217 kts | 118° |
| 2026-05-09 00:46 | 41.63512 | -86.91111 | 17359 ft | 218 kts | 118° |
| 2026-05-09 00:46 | 41.62863 | -86.89273 | 17760 ft | 219 kts | 119° |
| 2026-05-09 00:47 | 41.62213 | -86.87431 | 18161 ft | 220 kts | 119° |
| 2026-05-09 00:47 | 41.61559 | -86.85582 | 18509 ft | 221 kts | 119° |
| 2026-05-09 00:47 | 41.60904 | -86.83730 | 18861 ft | 221 kts | 120° |
| 2026-05-09 00:47 | 41.60245 | -86.81868 | 19219 ft | 222 kts | 120° |
| 2026-05-09 00:48 | 41.59584 | -86.80001 | 19583 ft | 222 kts | 120° |
| 2026-05-09 00:48 | 41.58922 | -86.78132 | 19949 ft | 223 kts | 121° |
| 2026-05-09 00:48 | 41.58248 | -86.76237 | 20236 ft | 229 kts | 121° |
| 2026-05-09 00:48 | 41.57559 | -86.74298 | 20514 ft | 234 kts | 121° |
| 2026-05-09 00:49 | 41.56855 | -86.72318 | 20796 ft | 238 kts | 121° |
| 2026-05-09 00:49 | 41.56137 | -86.70297 | 21081 ft | 242 kts | 121° |
| 2026-05-09 00:49 | 41.55409 | -86.68250 | 21369 ft | 246 kts | 122° |
| 2026-05-09 00:49 | 41.54681 | -86.66205 | 21653 ft | 249 kts | 122° |
| 2026-05-09 00:50 | 41.53935 | -86.64109 | 21945 ft | 251 kts | 122° |
| 2026-05-09 00:50 | 41.53182 | -86.61996 | 22240 ft | 253 kts | 122° |
| 2026-05-09 00:50 | 41.52423 | -86.59869 | 22538 ft | 255 kts | 122° |
| 2026-05-09 00:50 | 41.51660 | -86.57729 | 22817 ft | 258 kts | 122° |
| 2026-05-09 00:51 | 41.50865 | -86.55517 | 22828 ft | 270 kts | 122° |
| 2026-05-09 00:51 | 41.50039 | -86.53216 | 22832 ft | 279 kts | 122° |
| 2026-05-09 00:51 | 41.49193 | -86.50848 | 22836 ft | 286 kts | 122° |
| 2026-05-09 00:51 | 41.48329 | -86.48429 | 22852 ft | 291 kts | 122° |
| 2026-05-09 00:52 | 41.47448 | -86.45973 | 22851 ft | 296 kts | 122° |
| 2026-05-09 00:52 | 41.46556 | -86.43487 | 22855 ft | 299 kts | 122° |
| 2026-05-09 00:52 | 41.45656 | -86.40977 | 22855 ft | 301 kts | 122° |
| 2026-05-09 00:52 | 41.44748 | -86.38451 | 22852 ft | 303 kts | 122° |
| 2026-05-09 00:53 | 41.43836 | -86.35914 | 22855 ft | 305 kts | 122° |
| 2026-05-09 00:53 | 41.42907 | -86.33335 | 22855 ft | 306 kts | 122° |
| 2026-05-09 00:53 | 41.41995 | -86.30802 | 22855 ft | 307 kts | 122° |
| 2026-05-09 00:53 | 41.41072 | -86.28243 | 22854 ft | 307 kts | 122° |
| 2026-05-09 00:54 | 41.40144 | -86.25670 | 22855 ft | 308 kts | 122° |
| 2026-05-09 00:54 | 41.39216 | -86.23102 | 22856 ft | 308 kts | 122° |
| 2026-05-09 00:54 | 41.38285 | -86.20528 | 22856 ft | 309 kts | 122° |
| 2026-05-09 00:54 | 41.37352 | -86.17949 | 22853 ft | 309 kts | 122° |
| 2026-05-09 00:55 | 41.36420 | -86.15377 | 22853 ft | 309 kts | 122° |
| 2026-05-09 00:55 | 41.35484 | -86.12795 | 22852 ft | 309 kts | 122° |
| 2026-05-09 00:55 | 41.34549 | -86.10218 | 22853 ft | 310 kts | 122° |
| 2026-05-09 00:55 | 41.33611 | -86.07637 | 22848 ft | 310 kts | 122° |
| 2026-05-09 00:56 | 41.32672 | -86.05055 | 22846 ft | 310 kts | 122° |
| 2026-05-09 00:56 | 41.31738 | -86.02489 | 22849 ft | 310 kts | 122° |
| 2026-05-09 00:56 | 41.30789 | -85.99883 | 22844 ft | 311 kts | 122° |
| 2026-05-09 00:56 | 41.29848 | -85.97301 | 22845 ft | 311 kts | 122° |
| 2026-05-09 00:57 | 41.28904 | -85.94715 | 22843 ft | 311 kts | 122° |
| 2026-05-09 00:57 | 41.27959 | -85.92127 | 22840 ft | 311 kts | 122° |
| 2026-05-09 00:57 | 41.27028 | -85.89580 | 22842 ft | 311 kts | 122° |
| 2026-05-09 00:57 | 41.26084 | -85.86999 | 22841 ft | 311 kts | 122° |
| 2026-05-09 00:58 | 41.25134 | -85.84407 | 22843 ft | 311 kts | 122° |
| 2026-05-09 00:58 | 41.24188 | -85.81826 | 22844 ft | 311 kts | 122° |
| 2026-05-09 00:58 | 41.23239 | -85.79239 | 22845 ft | 311 kts | 122° |
| 2026-05-09 00:58 | 41.22279 | -85.76622 | 22840 ft | 311 kts | 122° |
| 2026-05-09 00:59 | 41.21343 | -85.74077 | 22847 ft | 311 kts | 122° |
| 2026-05-09 00:59 | 41.20392 | -85.71493 | 22843 ft | 311 kts | 122° |
| 2026-05-09 00:59 | 41.19442 | -85.68910 | 22845 ft | 311 kts | 122° |
| 2026-05-09 00:59 | 41.18491 | -85.66328 | 22844 ft | 311 kts | 122° |
| 2026-05-09 01:00 | 41.17541 | -85.63748 | 22852 ft | 311 kts | 122° |
| 2026-05-09 01:00 | 41.16576 | -85.61135 | 22856 ft | 311 kts | 122° |
| 2026-05-09 01:00 | 41.15639 | -85.58600 | 22856 ft | 311 kts | 123° |
| 2026-05-09 01:00 | 41.14686 | -85.56025 | 22859 ft | 311 kts | 122° |
| 2026-05-09 01:01 | 41.13733 | -85.53449 | 22862 ft | 311 kts | 123° |
| 2026-05-09 01:01 | 41.12782 | -85.50881 | 22864 ft | 310 kts | 123° |
| 2026-05-09 01:01 | 41.11828 | -85.48309 | 22862 ft | 310 kts | 123° |
| 2026-05-09 01:01 | 41.10875 | -85.45742 | 22867 ft | 310 kts | 123° |
| 2026-05-09 01:02 | 41.09923 | -85.43178 | 22866 ft | 310 kts | 123° |
| 2026-05-09 01:02 | 41.08970 | -85.40615 | 22866 ft | 310 kts | 123° |
| 2026-05-09 01:02 | 41.08009 | -85.38035 | 22864 ft | 314 kts | 123° |
| 2026-05-09 01:02 | 41.07039 | -85.35434 | 22869 ft | 317 kts | 123° |
| 2026-05-09 01:03 | 41.06061 | -85.32808 | 22869 ft | 318 kts | 123° |
| 2026-05-09 01:03 | 41.05078 | -85.30173 | 22867 ft | 320 kts | 123° |
| 2026-05-09 01:03 | 41.04089 | -85.27524 | 22862 ft | 321 kts | 123° |
| 2026-05-09 01:03 | 41.03434 | -85.25772 | 22866 ft | 321 kts | 123° |
| 2026-05-09 01:04 | 41.02443 | -85.23122 | 22864 ft | 321 kts | 123° |
| 2026-05-09 01:04 | 41.01448 | -85.20465 | 22863 ft | 322 kts | 123° |
| 2026-05-09 01:04 | 41.00453 | -85.17811 | 22861 ft | 322 kts | 123° |
| 2026-05-09 01:04 | 40.99459 | -85.15160 | 22861 ft | 322 kts | 123° |
| 2026-05-09 01:05 | 40.98461 | -85.12502 | 22861 ft | 322 kts | 123° |
| 2026-05-09 01:05 | 40.97463 | -85.09846 | 22865 ft | 322 kts | 123° |
| 2026-05-09 01:05 | 40.95467 | -85.04543 | 22863 ft | 322 kts | 123° |
| 2026-05-09 01:06 | 40.94468 | -85.01890 | 22861 ft | 322 kts | 123° |
| 2026-05-09 01:06 | 40.93468 | -84.99238 | 22864 ft | 322 kts | 123° |
| 2026-05-09 01:06 | 40.92468 | -84.96589 | 22868 ft | 322 kts | 123° |
| 2026-05-09 01:06 | 40.91467 | -84.93940 | 22866 ft | 322 kts | 123° |
| 2026-05-09 01:07 | 40.90467 | -84.91295 | 22868 ft | 322 kts | 123° |
| 2026-05-09 01:07 | 40.89468 | -84.88656 | 22873 ft | 322 kts | 123° |
| 2026-05-09 01:07 | 40.88466 | -84.86011 | 22868 ft | 322 kts | 123° |
| 2026-05-09 01:07 | 40.87464 | -84.83368 | 22864 ft | 321 kts | 123° |
| 2026-05-09 01:08 | 40.86461 | -84.80727 | 22863 ft | 321 kts | 123° |
| 2026-05-09 01:08 | 40.85465 | -84.78086 | 22860 ft | 322 kts | 121° |
| 2026-05-09 01:08 | 40.84610 | -84.75345 | 22864 ft | 323 kts | 117° |
| 2026-05-09 01:08 | 40.83773 | -84.72602 | 22862 ft | 323 kts | 118° |
| 2026-05-09 01:09 | 40.82922 | -84.69858 | 22859 ft | 323 kts | 118° |
| 2026-05-09 01:09 | 40.82068 | -84.67113 | 22860 ft | 323 kts | 118° |
| 2026-05-09 01:09 | 40.81218 | -84.64369 | 22859 ft | 323 kts | 118° |
| 2026-05-09 01:09 | 40.80368 | -84.61621 | 22863 ft | 323 kts | 118° |
| 2026-05-09 01:10 | 40.79517 | -84.58877 | 22857 ft | 322 kts | 118° |
| 2026-05-09 01:10 | 40.78660 | -84.56126 | 22577 ft | 328 kts | 118° |
| 2026-05-09 01:10 | 40.77785 | -84.53324 | 22180 ft | 333 kts | 118° |
| 2026-05-09 01:10 | 40.76904 | -84.50490 | 21785 ft | 334 kts | 117° |
| 2026-05-09 01:11 | 40.76021 | -84.47648 | 21391 ft | 334 kts | 117° |
| 2026-05-09 01:11 | 40.75149 | -84.44853 | 21013 ft | 334 kts | 117° |
| 2026-05-09 01:11 | 40.74254 | -84.41990 | 20647 ft | 333 kts | 116° |
| 2026-05-09 01:11 | 40.73380 | -84.39192 | 20418 ft | 327 kts | 116° |
| 2026-05-09 01:12 | 40.72518 | -84.36433 | 20197 ft | 323 kts | 116° |
| 2026-05-09 01:12 | 40.71674 | -84.33742 | 19986 ft | 321 kts | 116° |
| 2026-05-09 01:12 | 40.70704 | -84.31097 | 19747 ft | 312 kts | 130° |
| 2026-05-09 01:12 | 40.69177 | -84.29211 | 19509 ft | 294 kts | 158° |
| 2026-05-09 01:13 | 40.67349 | -84.28161 | 19294 ft | 283 kts | 171° |
| 2026-05-09 01:13 | 40.65488 | -84.27369 | 19073 ft | 280 kts | 173° |
| 2026-05-09 01:13 | 40.63620 | -84.26627 | 18857 ft | 280 kts | 173° |
| 2026-05-09 01:13 | 40.61755 | -84.25902 | 18644 ft | 279 kts | 173° |
| 2026-05-09 01:14 | 40.59893 | -84.25185 | 18425 ft | 279 kts | 173° |
| 2026-05-09 01:14 | 40.58030 | -84.24476 | 18218 ft | 279 kts | 173° |
| 2026-05-09 01:14 | 40.56174 | -84.23754 | 17979 ft | 280 kts | 168° |
| 2026-05-09 01:14 | 40.54581 | -84.22409 | 17742 ft | 297 kts | 141° |
| 2026-05-09 01:15 | 40.53427 | -84.20120 | 17509 ft | 304 kts | 119° |
| 2026-05-09 01:15 | 40.52611 | -84.17585 | 17277 ft | 305 kts | 114° |
| 2026-05-09 01:15 | 40.51849 | -84.14981 | 17041 ft | 305 kts | 113° |
| 2026-05-09 01:15 | 40.51099 | -84.12374 | 16802 ft | 305 kts | 113° |
| 2026-05-09 01:16 | 40.50356 | -84.09776 | 16575 ft | 304 kts | 113° |
| 2026-05-09 01:16 | 40.49612 | -84.07173 | 16339 ft | 303 kts | 113° |
| 2026-05-09 01:16 | 40.48873 | -84.04580 | 16109 ft | 303 kts | 113° |
| 2026-05-09 01:17 | 40.47394 | -83.99381 | 15668 ft | 301 kts | 113° |
| 2026-05-09 01:17 | 40.46674 | -83.96844 | 15447 ft | 300 kts | 113° |
| 2026-05-09 01:17 | 40.45946 | -83.94278 | 15225 ft | 299 kts | 113° |
| 2026-05-09 01:17 | 40.45224 | -83.91738 | 15002 ft | 299 kts | 113° |
| 2026-05-09 01:18 | 40.44493 | -83.89169 | 14780 ft | 298 kts | 113° |
| 2026-05-09 01:18 | 40.43770 | -83.86627 | 14563 ft | 298 kts | 113° |
| 2026-05-09 01:18 | 40.43047 | -83.84083 | 14344 ft | 297 kts | 113° |
| 2026-05-09 01:18 | 40.42329 | -83.81560 | 14131 ft | 296 kts | 113° |
| 2026-05-09 01:19 | 40.41609 | -83.79031 | 14019 ft | 294 kts | 113° |
| 2026-05-09 01:19 | 40.40899 | -83.76524 | 14018 ft | 291 kts | 113° |
| 2026-05-09 01:19 | 40.40200 | -83.74046 | 14016 ft | 289 kts | 113° |
| 2026-05-09 01:19 | 40.39545 | -83.71562 | 14013 ft | 288 kts | 104° |
| 2026-05-09 01:20 | 40.39571 | -83.68952 | 14009 ft | 287 kts | 73° |
| 2026-05-09 01:20 | 40.40365 | -83.66611 | 14008 ft | 280 kts | 62° |
| 2026-05-09 01:20 | 40.40915 | -83.64150 | 14004 ft | 282 kts | 77° |
| 2026-05-09 01:20 | 40.41304 | -83.61631 | 14002 ft | 282 kts | 75° |
| 2026-05-09 01:21 | 40.41804 | -83.59138 | 13999 ft | 282 kts | 70° |
| 2026-05-09 01:21 | 40.42397 | -83.56682 | 14009 ft | 283 kts | 69° |
| 2026-05-09 01:21 | 40.42963 | -83.54281 | 14005 ft | 284 kts | 70° |
| 2026-05-09 01:21 | 40.43509 | -83.51706 | 14004 ft | 285 kts | 76° |
| 2026-05-09 01:22 | 40.43627 | -83.49099 | 14002 ft | 287 kts | 95° |
| 2026-05-09 01:22 | 40.43211 | -83.46553 | 14004 ft | 285 kts | 112° |
| 2026-05-09 01:22 | 40.42307 | -83.44265 | 14006 ft | 280 kts | 129° |
| 2026-05-09 01:22 | 40.41141 | -83.42187 | 14007 ft | 286 kts | 131° |
| 2026-05-09 01:23 | 40.39945 | -83.40068 | 14011 ft | 291 kts | 131° |
| 2026-05-09 01:23 | 40.38745 | -83.37919 | 14017 ft | 294 kts | 130° |
| 2026-05-09 01:23 | 40.37525 | -83.35734 | 13775 ft | 299 kts | 130° |
| 2026-05-09 01:23 | 40.36286 | -83.33526 | 13482 ft | 301 kts | 130° |
| 2026-05-09 01:24 | 40.35042 | -83.31308 | 13188 ft | 302 kts | 130° |
| 2026-05-09 01:24 | 40.33804 | -83.29100 | 12898 ft | 301 kts | 130° |
| 2026-05-09 01:24 | 40.32564 | -83.26890 | 12610 ft | 300 kts | 131° |
| 2026-05-09 01:24 | 40.31283 | -83.24751 | 12328 ft | 294 kts | 139° |
| 2026-05-09 01:25 | 40.29767 | -83.23057 | 12055 ft | 289 kts | 148° |
| 2026-05-09 01:25 | 40.28188 | -83.21430 | 11765 ft | 288 kts | 148° |
| 2026-05-09 01:25 | 40.26620 | -83.19802 | 11508 ft | 287 kts | 148° |
| 2026-05-09 01:25 | 40.25572 | -83.18707 | 11358 ft | 285 kts | 148° |
| 2026-05-09 01:26 | 40.24029 | -83.17100 | 11129 ft | 283 kts | 148° |
| 2026-05-09 01:26 | 40.22490 | -83.15503 | 10906 ft | 281 kts | 148° |
| 2026-05-09 01:26 | 40.20967 | -83.13912 | 10683 ft | 280 kts | 147° |
| 2026-05-09 01:26 | 40.19674 | -83.11977 | 10460 ft | 286 kts | 129° |
| 2026-05-09 01:27 | 40.18606 | -83.09791 | 10243 ft | 285 kts | 128° |
| 2026-05-09 01:27 | 40.17542 | -83.07615 | 10009 ft | 283 kts | 128° |
| 2026-05-09 01:27 | 40.16467 | -83.05487 | 9795 ft | 279 kts | 131° |
| 2026-05-09 01:27 | 40.15353 | -83.03401 | 9555 ft | 278 kts | 130° |
| 2026-05-09 01:28 | 40.14265 | -83.01311 | 9312 ft | 277 kts | 130° |
| 2026-05-09 01:28 | 40.13184 | -82.99242 | 9080 ft | 275 kts | 130° |
| 2026-05-09 01:28 | 40.12103 | -82.97196 | 8838 ft | 273 kts | 131° |
| 2026-05-09 01:28 | 40.11020 | -82.95164 | 8602 ft | 272 kts | 132° |
| 2026-05-09 01:29 | 40.09898 | -82.93182 | 8359 ft | 271 kts | 129° |
| 2026-05-09 01:29 | 40.09115 | -82.90911 | 8129 ft | 279 kts | 110° |
| 2026-05-09 01:29 | 40.08830 | -82.88389 | 7896 ft | 281 kts | 97° |
| 2026-05-09 01:29 | 40.08711 | -82.85861 | 7668 ft | 277 kts | 97° |
| 2026-05-09 01:30 | 40.08584 | -82.83370 | 7440 ft | 273 kts | 98° |
| 2026-05-09 01:30 | 40.08447 | -82.80913 | 7198 ft | 270 kts | 98° |
| 2026-05-09 01:30 | 40.08312 | -82.78477 | 6859 ft | 268 kts | 98° |
| 2026-05-09 01:30 | 40.08181 | -82.76060 | 6490 ft | 266 kts | 98° |
| 2026-05-09 01:31 | 40.08051 | -82.73661 | 6118 ft | 264 kts | 98° |
| 2026-05-09 01:31 | 40.07918 | -82.71274 | 5729 ft | 262 kts | 98° |
| 2026-05-09 01:31 | 40.07785 | -82.68907 | 5349 ft | 260 kts | 98° |
| 2026-05-09 01:31 | 40.07649 | -82.66559 | 4979 ft | 259 kts | 98° |
| 2026-05-09 01:32 | 40.07328 | -82.64308 | 4586 ft | 246 kts | 118° |
| 2026-05-09 01:32 | 40.06336 | -82.62669 | 4190 ft | 221 kts | 150° |
| 2026-05-09 01:32 | 40.04988 | -82.62073 | 3808 ft | 190 kts | 184° |
| 2026-05-09 01:32 | 40.03863 | -82.62485 | 3422 ft | 154 kts | 210° |
| 2026-05-09 01:33 | 40.03159 | -82.63262 | 3055 ft | 139 kts | 238° |
| 2026-05-09 01:33 | 40.02685 | -82.64390 | 3017 ft | 153 kts | 242° |
| 2026-05-09 01:33 | 40.02150 | -82.65686 | 3019 ft | 169 kts | 242° |
| 2026-05-09 01:33 | 40.01588 | -82.67053 | 3019 ft | 172 kts | 242° |
| 2026-05-09 01:34 | 40.01029 | -82.68417 | 3006 ft | 169 kts | 242° |
| 2026-05-09 01:34 | 40.00482 | -82.69752 | 3006 ft | 165 kts | 242° |
| 2026-05-09 01:34 | 39.99947 | -82.71058 | 3007 ft | 163 kts | 242° |
| 2026-05-09 01:34 | 39.99504 | -82.72387 | 3002 ft | 155 kts | 255° |
| 2026-05-09 01:35 | 39.99424 | -82.73711 | 2946 ft | 147 kts | 268° |
| 2026-05-09 01:35 | 39.99453 | -82.75051 | 2770 ft | 145 kts | 271° |
| 2026-05-09 01:35 | 39.99506 | -82.76361 | 2581 ft | 144 kts | 271° |
| 2026-05-09 01:35 | 39.99575 | -82.77641 | 2390 ft | 143 kts | 273° |
| 2026-05-09 01:36 | 39.99610 | -82.78942 | 2184 ft | 139 kts | 263° |
| 2026-05-09 01:36 | 39.99399 | -82.80017 | 2043 ft | 115 kts | 250° |
| 2026-05-09 01:36 | 39.99153 | -82.80994 | 1851 ft | 110 kts | 255° |
| 2026-05-09 01:36 | 39.99007 | -82.81909 | 1712 ft | 100 kts | 260° |
| 2026-05-09 01:37 | 39.98943 | -82.82748 | 1594 ft | 98 kts | 266° |
| 2026-05-09 01:37 | 39.98947 | -82.83634 | 1478 ft | 99 kts | 271° |
| 2026-05-09 01:37 | 39.98993 | -82.84524 | 1381 ft | 98 kts | 274° |
| 2026-05-09 01:37 | 39.99050 | -82.85430 | 1217 ft | 102 kts | 274° |
| 2026-05-09 01:38 | 39.99109 | -82.86353 | 1054 ft | 101 kts | 274° |
| 2026-05-09 01:38 | 39.99153 | -82.87208 | 912 ft | 101 kts | 274° |
| 2026-05-09 01:38 | 39.99205 | -82.88109 | 831 ft | 97 kts | 274° |
| 2026-05-09 01:38 | 39.99249 | -82.88797 | 821 ft | 39 kts | 274° |
| 2026-05-09 01:39 | 39.99265 | -82.89044 | 821 ft | 30 kts | 279° |
| 2026-05-09 01:39 | 39.99360 | -82.89110 | 821 ft | 1 kts | 8° |
| 2026-05-09 01:39 | 39.99387 | -82.89105 | 821 ft | 0 kts | 6° |
| 2026-05-09 01:40 | 39.99389 | -82.89105 | 821 ft | 2 kts | 5° |
| 2026-05-09 01:40 | 39.99429 | -82.89138 | 821 ft | 13 kts | 321° |
| 2026-05-09 01:40 | 39.99530 | -82.89178 | 821 ft | 16 kts | 358° |
| 2026-05-09 01:40 | 39.99637 | -82.89190 | 821 ft | 15 kts | 356° |
| 2026-05-09 01:41 | 39.99678 | -82.89152 | 821 ft | 0 kts | 90° |